地図

経路データ

SID SEASON NUMBER BASIN SUBBASIN NAME ISO_TIME NATURE LAT LON WMO_WIND WMO_PRES WMO_AGENCY TRACK_TYPE DIST2LAND LANDFALL IFLAG USA_AGENCY USA_ATCF_ID USA_LAT USA_LON USA_RECORD USA_STATUS USA_WIND USA_PRES USA_SSHS USA_R34_NE USA_R34_SE USA_R34_SW USA_R34_NW USA_R50_NE USA_R50_SE USA_R50_SW USA_R50_NW USA_R64_NE USA_R64_SE USA_R64_SW USA_R64_NW USA_POCI USA_ROCI USA_RMW USA_EYE TOKYO_LAT TOKYO_LON TOKYO_GRADE TOKYO_WIND TOKYO_PRES TOKYO_R50_DIR TOKYO_R50_LONG TOKYO_R50_SHORT TOKYO_R30_DIR TOKYO_R30_LONG TOKYO_R30_SHORT TOKYO_LAND CMA_LAT CMA_LON CMA_CAT CMA_WIND CMA_PRES HKO_LAT HKO_LON HKO_CAT HKO_WIND HKO_PRES NEWDELHI_LAT NEWDELHI_LON NEWDELHI_GRADE NEWDELHI_WIND NEWDELHI_PRES NEWDELHI_CI NEWDELHI_DP NEWDELHI_POCI REUNION_LAT REUNION_LON REUNION_TYPE REUNION_WIND REUNION_PRES REUNION_TNUM REUNION_CI REUNION_RMW REUNION_R34_NE REUNION_R34_SE REUNION_R34_SW REUNION_R34_NW REUNION_R50_NE REUNION_R50_SE REUNION_R50_SW REUNION_R50_NW REUNION_R64_NE REUNION_R64_SE REUNION_R64_SW REUNION_R64_NW BOM_LAT BOM_LON BOM_TYPE BOM_WIND BOM_PRES BOM_TNUM BOM_CI BOM_RMW BOM_R34_NE BOM_R34_SE BOM_R34_SW BOM_R34_NW BOM_R50_NE BOM_R50_SE BOM_R50_SW BOM_R50_NW BOM_R64_NE BOM_R64_SE BOM_R64_SW BOM_R64_NW BOM_ROCI BOM_POCI BOM_EYE BOM_POS_METHOD BOM_PRES_METHOD NADI_LAT NADI_LON NADI_CAT NADI_WIND NADI_PRES WELLINGTON_LAT WELLINGTON_LON WELLINGTON_WIND WELLINGTON_PRES DS824_LAT DS824_LON DS824_STAGE DS824_WIND DS824_PRES TD9636_LAT TD9636_LON TD9636_STAGE TD9636_WIND TD9636_PRES TD9635_LAT TD9635_LON TD9635_WIND TD9635_PRES TD9635_ROCI NEUMANN_LAT NEUMANN_LON NEUMANN_CLASS NEUMANN_WIND NEUMANN_PRES MLC_LAT MLC_LON MLC_CLASS MLC_WIND MLC_PRES USA_GUST BOM_GUST BOM_GUST_PER REUNION_GUST REUNION_GUST_PER USA_SEAHGT USA_SEARAD_NE USA_SEARAD_SE USA_SEARAD_SW USA_SEARAD_NW STORM_SPEED STORM_DIR
1999218N12241 1999 56 EP MM EUGENE 1999-08-05 12:00:00 NR 12.1000 -119.000 main 1538 1538 O_____________ jtwc_ep EP081999 12.1000 -119.000 20 -1 3 265
1999218N12241 1999 56 EP MM EUGENE 1999-08-05 15:00:00 NR 12.0875 -119.138 main 1545 1545 P_____________ EP081999 12.0875 -119.135 22 -1 3 270
1999218N12241 1999 56 EP MM EUGENE 1999-08-05 18:00:00 NR 12.1000 -119.300 main 1558 1558 O_____________ jtwc_ep EP081999 12.1000 -119.300 25 -1 4 280
1999218N12241 1999 56 EP MM EUGENE 1999-08-05 21:00:00 NR 12.1500 -119.500 main 1563 1563 P_____________ EP081999 12.1500 -119.507 25 -1 4 284
1999218N12241 1999 56 EP MM EUGENE 1999-08-06 00:00:00 NR 12.2000 -119.700 main 1577 1577 O_____________ jtwc_ep EP081999 12.2000 -119.700 25 -1 3 276
1999218N12241 1999 56 EP MM EUGENE 1999-08-06 03:00:00 NR 12.1849 -119.843 main 1583 1583 P_____________ EP081999 12.1999 -119.793 25 -1 3 270
1999218N12241 1999 56 EP MM EUGENE 1999-08-06 06:00:00 TS 12.2000 -119.967 25 1007 hurdat_epa main 1597 1596 O_____________ hurdat_epa EP081999 12.2000 -119.900 TD 25 1007 -1 3 287
1999218N12241 1999 56 EP MM EUGENE 1999-08-06 09:00:00 TS 12.2863 -120.177 main 1603 1603 P_____________ EP081999 12.2275 -120.113 TD 27 1007 -1 5 291
1999218N12241 1999 56 EP MM EUGENE 1999-08-06 12:00:00 TS 12.3800 -120.440 30 1007 hurdat_epa main 1609 1609 O_____________ hurdat_epa EP081999 12.3000 -120.400 TD 30 1007 -1 6 288
1999218N12241 1999 56 EP MM EUGENE 1999-08-06 15:00:00 TS 12.4758 -120.758 main 1630 1630 P_____________ EP081999 12.4349 -120.720 TD 32 1006 -1 7 288
1999218N12241 1999 56 EP MM EUGENE 1999-08-06 18:00:00 TS 12.6000 -121.133 35 1005 hurdat_epa main 1644 1644 O_____________ hurdat_epa EP081999 12.6000 -121.100 TS 35 1005 0 8 288
1999218N12241 1999 56 EP MM EUGENE 1999-08-06 21:00:00 TS 12.7258 -121.540 main 1666 1663 P_____________ EP081999 12.7500 -121.543 TS 37 1004 0 9 288
1999218N12241 1999 56 EP MM EUGENE 1999-08-07 00:00:00 TS 12.8667 -121.967 40 1004 hurdat_epa main 1680 1680 O_____________ hurdat_epa EP081999 12.9000 -122.000 TS 40 1004 0 9 290
1999218N12241 1999 56 EP MM EUGENE 1999-08-07 03:00:00 TS 13.0308 -122.386 main 1697 1695 P_____________ EP081999 13.0499 -122.408 TS 40 1003 0 9 292
1999218N12241 1999 56 EP MM EUGENE 1999-08-07 06:00:00 TS 13.2000 -122.800 40 1003 hurdat_epa main 1707 1707 O_____________ hurdat_epa EP081999 13.2000 -122.800 TS 40 1003 0 9 292
1999218N12241 1999 56 EP MM EUGENE 1999-08-07 09:00:00 TS 13.3449 -123.200 main 1726 1718 P_____________ EP081999 13.3424 -123.200 TS 42 1003 0 8 291
1999218N12241 1999 56 EP MM EUGENE 1999-08-07 12:00:00 TS 13.5000 -123.600 45 1003 hurdat_epa main 1738 1737 O_____________ hurdat_epa EP081999 13.5000 -123.600 TS 45 1003 0 9 294
1999218N12241 1999 56 EP MM EUGENE 1999-08-07 15:00:00 TS 13.6974 -124.004 main 1751 1751 P_____________ EP081999 13.6924 -123.985 TS 47 1000 0 9 296
1999218N12241 1999 56 EP MM EUGENE 1999-08-07 18:00:00 TS 13.9000 -124.433 50 997 hurdat_epa main 1765 1765 O_____________ hurdat_epa EP081999 13.9000 -124.400 TS 50 997 0 10 294
1999218N12241 1999 56 EP MM EUGENE 1999-08-07 21:00:00 TS 14.0842 -124.912 main 1788 1788 P_____________ EP081999 14.1225 -124.892 TS 52 995 0 10 290
1999218N12241 1999 56 EP MM EUGENE 1999-08-08 00:00:00 TS 14.2333 -125.400 55 994 hurdat_epa main 1819 1819 O_____________ hurdat_epa EP081999 14.3000 -125.400 TS 55 994 0 9 285
1999218N12241 1999 56 EP MM EUGENE 1999-08-08 03:00:00 TS 14.3266 -125.855 main 1852 1852 P_____________ EP081999 14.3649 -125.858 TS 55 994 0 9 281
1999218N12241 1999 56 EP MM EUGENE 1999-08-08 06:00:00 TS 14.4000 -126.300 55 994 hurdat_epa main 1877 1877 O_____________ hurdat_epa EP081999 14.4000 -126.300 TS 55 994 0 9 281
1999218N12241 1999 56 EP MM EUGENE 1999-08-08 09:00:00 TS 14.4999 -126.743 main 1903 1903 P_____________ EP081999 14.4924 -126.743 TS 57 992 0 9 283
1999218N12241 1999 56 EP MM EUGENE 1999-08-08 12:00:00 TS 14.6000 -127.200 60 990 hurdat_epa main 1932 1932 O_____________ hurdat_epa EP081999 14.6000 -127.200 TS 60 990 0 9 282
1999218N12241 1999 56 EP MM EUGENE 1999-08-08 15:00:00 TS 14.6932 -127.685 main 1957 1957 P_____________ EP081999 14.7074 -127.685 TS 65 986 1 10 280
1999218N12241 1999 56 EP MM EUGENE 1999-08-08 18:00:00 TS 14.7667 -128.200 70 983 hurdat_epa main 1984 1984 O_____________ hurdat_epa EP081999 14.8000 -128.200 HU 70 983 1 10 278
1999218N12241 1999 56 EP MM EUGENE 1999-08-08 21:00:00 TS 14.8375 -128.750 main 2020 2020 P_____________ EP081999 14.8950 -128.750 HU 72 981 1 11 274
1999218N12241 1999 56 EP MM EUGENE 1999-08-09 00:00:00 TS 14.8333 -129.300 75 979 hurdat_epa main 2064 2064 O_____________ hurdat_epa EP081999 14.9000 -129.300 HU 75 979 1 10 262
1999218N12241 1999 56 EP MM EUGENE 1999-08-09 03:00:00 TS 14.6865 -129.800 main 2109 2109 P_____________ EP081999 14.7223 -129.800 HU 82 974 1 10 251
1999218N12241 1999 56 EP MM EUGENE 1999-08-09 06:00:00 TS 14.5000 -130.300 90 970 hurdat_epa main 2162 2162 O_____________ hurdat_epa EP081999 14.5000 -130.300 HU 90 970 2 11 254
1999218N12241 1999 56 EP MM EUGENE 1999-08-09 09:00:00 TS 14.3975 -130.850 main 2208 2208 P_____________ EP081999 14.3925 -130.850 HU 90 970 2 11 259
1999218N12241 1999 56 EP MM EUGENE 1999-08-09 12:00:00 TS 14.3000 -131.400 90 970 hurdat_epa main 2262 2262 O_____________ hurdat_epa EP081999 14.3000 -131.400 HU 90 970 2 11 256
1999218N12241 1999 56 EP MM EUGENE 1999-08-09 15:00:00 TS 14.1373 -131.903 main 2317 2317 P_____________ EP081999 14.1348 -131.900 HU 92 967 2 10 253
1999218N12241 1999 56 EP MM EUGENE 1999-08-09 18:00:00 TS 14.0000 -132.400 95 964 hurdat_epa main 2364 2364 O_____________ hurdat_epa EP081999 14.0000 -132.400 HU 95 964 2 10 261
1999218N12241 1999 56 EP MM EUGENE 1999-08-09 21:00:00 TS 13.9733 -132.931 main 2403 2358 P_____________ EP081999 13.9925 -132.950 HU 95 964 2 10 268
1999218N12241 1999 56 EP MM EUGENE 1999-08-10 00:00:00 TS 13.9667 -133.467 95 965 hurdat_epa main 2348 2310 O_____________ hurdat_epa EP081999 14.0000 -133.500 HU 95 965 2 10 265
1999218N12241 1999 56 EP MM EUGENE 1999-08-10 03:00:00 TS 13.8881 -133.976 main 2300 2253 P_____________ EP081999 13.9073 -134.000 HU 92 967 2 10 261
1999218N12241 1999 56 EP MM EUGENE 1999-08-10 06:00:00 TS 13.8000 -134.500 90 970 hurdat_epa main 2253 2206 O_____________ hurdat_epa EP081999 13.8000 -134.500 HU 90 970 2 11 262
1999218N12241 1999 56 EP MM EUGENE 1999-08-10 09:00:00 TS 13.7375 -135.078 main 2195 2145 P_____________ EP081999 13.7349 -135.042 HU 87 972 2 11 265
1999218N12241 1999 56 EP MM EUGENE 1999-08-10 12:00:00 TS 13.7000 -135.667 85 974 hurdat_epa main 2135 2084 O_____________ hurdat_epa EP081999 13.7000 -135.600 HU 85 974 2 11 268
1999218N12241 1999 56 EP MM EUGENE 1999-08-10 15:00:00 TS 13.6922 -136.204 main 2084 2033 P_____________ EP081999 13.6922 -136.127 HU 85 974 2 11 270
1999218N12241 1999 56 EP MM EUGENE 1999-08-10 18:00:00 TS 13.7000 -136.767 85 974 hurdat_epa main 2023 1963 O_____________ hurdat_epa EP081999 13.7000 -136.700 HU 85 974 2 12 270
1999218N12241 1999 56 EP MM EUGENE 1999-08-10 21:00:00 TS 13.6950 -137.426 main 1963 1893 P_____________ EP081999 13.6926 -137.393 HU 82 975 1 13 270
1999218N12241 1999 56 EP MM EUGENE 1999-08-11 00:00:00 TS 13.7000 -138.100 80 977 hurdat_epa main 1893 1833 O_____________ hurdat_epa EP081999 13.7000 -138.100 HU 80 977 1 13 271
1999218N12241 1999 56 EP MM EUGENE 1999-08-11 03:00:00 TS 13.7257 -138.718 main 1833 1769 P_____________ EP081999 13.7423 -138.722 HU 77 978 1 12 273
1999218N12241 1999 56 EP MM EUGENE 1999-08-11 06:00:00 TS 13.7667 -139.300 75 979 hurdat_epa main 1769 1719 O_____________ hurdat_epa EP081999 13.8000 -139.300 HU 75 979 1 11 275
1999218N12241 1999 56 EP MM EUGENE 1999-08-11 09:00:00 TS 13.8140 -139.857 main 1710 1656 P_____________ EP081999 13.8498 -139.858 HU 75 979 1 11 275
1999218N12241 1999 56 EP CP EUGENE 1999-08-11 12:00:00 TS 13.8692 -140.400 75 980 hurdat_epa main 1656 1607 O_____________ hurdat_epa EP081999 13.9000 -140.400 HU 75 980 1 11 275
1999218N12241 1999 56 EP CP EUGENE 1999-08-11 15:00:00 TS 13.9157 -140.958 main 1597 1543 P_____________ EP081999 13.9424 -140.958 HU 75 980 1 11 276
1999218N12241 1999 56 EP CP EUGENE 1999-08-11 18:00:00 TS 13.9733 -141.500 75 980 hurdat_epa main 1543 1494 O_____________ hurdat_epa EP081999 14.0000 -141.500 HU 75 980 1 10 278
1999218N12241 1999 56 EP CP EUGENE 1999-08-11 21:00:00 TS 14.0548 -141.998 main 1490 1441 P_____________ EP081999 14.0923 -142.000 HU 75 982 1 10 280
1999218N12241 1999 56 EP CP EUGENE 1999-08-12 00:00:00 TS 14.1500 -142.500 75 985 hurdat_epa main 1436 1388 O_____________ hurdat_epa EP081999 14.2000 -142.500 HU 75 985 1 10 281
1999218N12241 1999 56 EP CP EUGENE 1999-08-12 03:00:00 TS 14.2462 -143.059 main 1378 1325 P_____________ EP081999 14.3000 -143.050 HU 75 985 1 11 280
1999218N12241 1999 56 EP CP EUGENE 1999-08-12 06:00:00 TS 14.3500 -143.625 75 985 hurdat_epa main 1320 1267 O_____________ hurdat_epa EP081999 14.4000 -143.600 HU 75 985 1 11 281
1999218N12241 1999 56 EP CP EUGENE 1999-08-12 09:00:00 TS 14.4605 -144.156 main 1258 1214 P_____________ EP081999 14.4997 -144.093 HU 75 985 1 10 282
1999218N12241 1999 56 EP CP EUGENE 1999-08-12 12:00:00 TS 14.5750 -144.675 75 985 hurdat_epa main 1205 1152 O_____________ hurdat_epa EP081999 14.6000 -144.600 HU 75 985 1 10 284
1999218N12241 1999 56 EP CP EUGENE 1999-08-12 15:00:00 TS 14.7061 -145.194 main 1152 1100 P_____________ EP081999 14.7150 -145.192 HU 70 987 1 10 282
1999218N12241 1999 56 EP CP EUGENE 1999-08-12 18:00:00 TS 14.8000 -145.725 65 990 hurdat_epa main 1100 1044 O_____________ hurdat_epa EP081999 14.8000 -145.800 HU 65 990 1 11 276
1999218N12241 1999 56 EP CP EUGENE 1999-08-12 21:00:00 TS 14.8099 -146.282 main 1044 999 P_____________ EP081999 14.8223 -146.358 HU 60 994 0 11 269
1999218N12241 1999 56 EP CP EUGENE 1999-08-13 00:00:00 TS 14.7750 -146.850 55 998 hurdat_epa main 999 952 O_____________ hurdat_epa EP081999 14.8000 -146.900 TS 55 998 0 11 266
1999218N12241 1999 56 EP CP EUGENE 1999-08-13 03:00:00 TS 14.7354 -147.398 main 952 908 P_____________ EP081999 14.7498 -147.435 TS 55 998 0 11 266
1999218N12241 1999 56 EP CP EUGENE 1999-08-13 06:00:00 TS 14.7000 -147.975 55 998 hurdat_epa main 900 850 O_____________ hurdat_epa EP081999 14.7000 -148.000 TS 55 998 0 12 268
1999218N12241 1999 56 EP CP EUGENE 1999-08-13 09:00:00 TS 14.6886 -148.615 main 850 793 P_____________ EP081999 14.6924 -148.627 TS 55 998 0 13 270
1999218N12241 1999 56 EP CP EUGENE 1999-08-13 12:00:00 TS 14.7000 -149.300 55 999 hurdat_epa main 793 740 O_____________ hurdat_epa EP081999 14.7000 -149.300 TS 55 999 0 14 272
1999218N12241 1999 56 EP CP EUGENE 1999-08-13 15:00:00 TS 14.7430 -150.009 main 740 680 P_____________ EP081999 14.6999 -149.993 TS 52 1001 0 14 273
1999218N12241 1999 56 EP CP EUGENE 1999-08-13 18:00:00 TS 14.7750 -150.725 50 1003 hurdat_epa main 680 632 O_____________ hurdat_epa EP081999 14.7000 -150.700 TS 50 1003 0 14 271
1999218N12241 1999 56 EP CP EUGENE 1999-08-13 21:00:00 TS 14.7559 -151.409 main 632 600 P_____________ EP081999 14.7147 -151.392 TS 47 1002 0 13 267
1999218N12241 1999 56 EP CP EUGENE 1999-08-14 00:00:00 TS 14.7000 -152.100 45 1002 hurdat_epa main 600 571 O_____________ hurdat_epa EP081999 14.7000 -152.100 TS 45 1002 0 14 265
1999218N12241 1999 56 EP CP EUGENE 1999-08-14 03:00:00 TS 14.6293 -152.843 main 571 539 P_____________ EP081999 14.6299 -152.850 TS 45 1003 0 14 263
1999218N12241 1999 56 EP CP EUGENE 1999-08-14 06:00:00 TS 14.5250 -153.575 45 1004 hurdat_epa main 540 524 O_____________ hurdat_epa EP081999 14.5000 -153.600 TS 45 1004 0 14 260
1999218N12241 1999 56 EP CP EUGENE 1999-08-14 09:00:00 TS 14.3990 -154.227 main 528 522 P_____________ EP081999 14.3148 -154.315 TS 40 1004 0 13 257
1999218N12241 1999 56 EP CP EUGENE 1999-08-14 12:00:00 TS 14.2250 -154.875 35 1004 hurdat_epa main 532 529 O_____________ hurdat_epa EP081999 14.1000 -155.000 TS 35 1004 0 14 253
1999218N12241 1999 56 EP CP EUGENE 1999-08-14 15:00:00 TS 13.9976 -155.611 main 548 548 P_____________ EP081999 13.9148 -155.665 TS 32 1004 -1 15 250
1999218N12241 1999 56 EP CP EUGENE 1999-08-14 18:00:00 TS 13.7250 -156.325 30 1004 hurdat_epa main 585 585 O_____________ hurdat_epa EP081999 13.7000 -156.300 TD 30 1004 -1 14 246
1999218N12241 1999 56 EP CP EUGENE 1999-08-14 21:00:00 TS 13.4303 -156.913 main 628 628 P_____________ EP081999 13.4147 -156.900 TD 30 1005 -1 13 242
1999218N12241 1999 56 EP CP EUGENE 1999-08-15 00:00:00 TS 13.1250 -157.475 30 1006 hurdat_epa main 677 677 O_____________ hurdat_epa EP081999 13.1000 -157.500 TD 30 1006 -1 13 242
1999218N12241 1999 56 EP CP EUGENE 1999-08-15 03:00:00 TS 12.8186 -158.090 main 729 729 P_____________ EP081999 12.7773 -158.128 TD 30 1006 -1 14 245
1999218N12241 1999 56 EP CP EUGENE 1999-08-15 06:00:00 TS 12.5500 -158.750 30 1006 hurdat_epa main 774 789 O_____________ hurdat_epa EP081999 12.5000 -158.800 TD 30 1006 -1 14 250
1999218N12241 1999 56 EP CP EUGENE 1999-08-15 09:00:00 TS 12.3410 -159.447 main 838 838 P_____________ EP081999 12.3124 -159.535 TD 30 1006 -1 15 256
1999218N12241 1999 56 EP CP EUGENE 1999-08-15 12:00:00 TS 12.2000 -160.200 30 1006 hurdat_epa main 891 891 O_____________ hurdat_epa EP081999 12.2000 -160.300 TD 30 1006 -1 15 262
1999218N12241 1999 56 EP CP EUGENE 1999-08-15 15:00:00 TS 12.1212 -161.009 main 949 949 P_____________ EP081999 12.1378 -161.055 TD 30 1006 -1 16 266
1999218N12241 1999 56 EP CP EUGENE 1999-08-15 18:00:00 TS 12.0750 -161.850 30 1006 hurdat_epa main 1003 O_____________ hurdat_epa EP081999 12.1000 -161.800 TD 30 1006 -1 16 267

IBTrACS Databaseについて

本データベースは、米国NOAAが公開する1842年以降の世界の熱帯低気圧のベストトラックデータアーカイブInternational Best Track Archive for Climate Stewardship (IBTrACS)を、ウェブで閲覧しやすい形式に変換したものです。

最終更新日:2021-11-26